Philadelphia, Pennsylvania
Traffic Map
Current Weather Conditions
Philadelphia, Pennsylvania
Overcast
Overcast
34°
Feels Like: 34°
Wind Chill: 34° Ceiling: 3200
Heat Index: 34° Visibility: 10mi
Dew Point: 22° Wind: 3mph
Humidity: 61% Direction: 170° (S)
Pressure: 30.32in Gusts: 0mph
Raw Report DataKPHL 210354Z 17003KT 10SM OVC032 01/M06 A3032 RMK AO2 SLP266 T00111056
Traffic Incident Summary
Active as of:
Severity:
Category:
InformationThere was an issue retrieving the traffic information for this location. Please try a different location or try again shortly.
Advertisements
Track Severe Weather on mobile